Terminal Aerodrome Forecast
Issued by NWS Spokane, WA

Home | Current Version | Previous Version | Text Only | Print | Product List | Glossary On
Versions: 1 2 3 4 5 6 7 8 9 10 11 12 13 14 15 16 17 18 19 20 21 22 23 24 25 26 27 28 29
000
FTUS46 KOTX 261816 AAA
TAFEAT
TAF AMD
KEAT 261816Z 2618/2718 30016KT P6SM FEW100 OVC160
     FM262000 30019G26KT P6SM BKN160
     FM262300 30025G33KT P6SM FEW180
     FM270300 30017G24KT P6SM FEW180
     FM271100 29012KT P6SM FEW200=

USA.gov is the U.S. government's official web portal to all federal, state and local government web resources and services.